sensor_id;sensor_type;location;lat;lon;timestamp;P1;durP1;ratioP1;P2;durP2;ratioP2
74170;SDS011;62526;50.948;6.590;2023-04-02T00:03:20;7.17;;;5.37;;
74170;SDS011;62526;50.948;6.590;2023-04-02T00:05:47;7.27;;;6.10;;
74170;SDS011;62526;50.948;6.590;2023-04-02T00:08:22;7.63;;;5.60;;
74170;SDS011;62526;50.948;6.590;2023-04-02T00:10:50;6.40;;;5.70;;
74170;SDS011;62526;50.948;6.590;2023-04-02T00:13:24;5.20;;;4.70;;
74170;SDS011;62526;50.948;6.590;2023-04-02T00:15:50;9.10;;;6.83;;
74170;SDS011;62526;50.948;6.590;2023-04-02T00:18:19;5.47;;;4.63;;
74170;SDS011;62526;50.948;6.590;2023-04-02T00:20:47;7.43;;;6.33;;
74170;SDS011;62526;50.948;6.590;2023-04-02T00:23:19;10.47;;;7.80;;
74170;SDS011;62526;50.948;6.590;2023-04-02T00:25:46;10.13;;;7.57;;
74170;SDS011;62526;50.948;6.590;2023-04-02T00:28:18;9.93;;;7.90;;
74170;SDS011;62526;50.948;6.590;2023-04-02T00:30:49;11.37;;;7.97;;
74170;SDS011;62526;50.948;6.590;2023-04-02T00:33:16;11.10;;;8.30;;
74170;SDS011;62526;50.948;6.590;2023-04-02T00:35:42;11.27;;;7.67;;
74170;SDS011;62526;50.948;6.590;2023-04-02T00:38:17;9.00;;;7.00;;
74170;SDS011;62526;50.948;6.590;2023-04-02T00:40:54;9.33;;;7.97;;
74170;SDS011;62526;50.948;6.590;2023-04-02T00:43:20;9.23;;;6.90;;
74170;SDS011;62526;50.948;6.590;2023-04-02T00:45:48;8.27;;;6.60;;
74170;SDS011;62526;50.948;6.590;2023-04-02T00:50:49;8.00;;;6.37;;
74170;SDS011;62526;50.948;6.590;2023-04-02T00:53:19;8.13;;;5.67;;
74170;SDS011;62526;50.948;6.590;2023-04-02T00:55:43;8.30;;;6.80;;
74170;SDS011;62526;50.948;6.590;2023-04-02T00:58:16;7.33;;;5.90;;
74170;SDS011;62526;50.948;6.590;2023-04-02T01:00:47;6.57;;;5.50;;
74170;SDS011;62526;50.948;6.590;2023-04-02T01:03:13;6.53;;;5.43;;
74170;SDS011;62526;50.948;6.590;2023-04-02T01:05:59;6.73;;;5.73;;
74170;SDS011;62526;50.948;6.590;2023-04-02T01:08:32;8.30;;;6.67;;
74170;SDS011;62526;50.948;6.590;2023-04-02T01:11:06;6.33;;;4.83;;
74170;SDS011;62526;50.948;6.590;2023-04-02T01:13:32;8.70;;;4.60;;
74170;SDS011;62526;50.948;6.590;2023-04-02T01:16:18;5.50;;;4.60;;
74170;SDS011;62526;50.948;6.590;2023-04-02T01:19:08;6.33;;;4.93;;
74170;SDS011;62526;50.948;6.590;2023-04-02T01:21:52;6.00;;;5.40;;
74170;SDS011;62526;50.948;6.590;2023-04-02T01:24:20;6.77;;;5.70;;
74170;SDS011;62526;50.948;6.590;2023-04-02T01:26:51;4.83;;;4.33;;
74170;SDS011;62526;50.948;6.590;2023-04-02T01:29:21;4.70;;;3.83;;
74170;SDS011;62526;50.948;6.590;2023-04-02T01:31:49;6.07;;;5.17;;
74170;SDS011;62526;50.948;6.590;2023-04-02T01:34:17;6.17;;;5.00;;
74170;SDS011;62526;50.948;6.590;2023-04-02T01:36:52;6.23;;;4.50;;
74170;SDS011;62526;50.948;6.590;2023-04-02T01:41:55;7.10;;;5.93;;
74170;SDS011;62526;50.948;6.590;2023-04-02T01:44:40;5.40;;;4.80;;
74170;SDS011;62526;50.948;6.590;2023-04-02T01:47:10;6.43;;;5.83;;
74170;SDS011;62526;50.948;6.590;2023-04-02T01:49:36;8.23;;;5.67;;
74170;SDS011;62526;50.948;6.590;2023-04-02T01:52:04;6.23;;;4.87;;
74170;SDS011;62526;50.948;6.590;2023-04-02T01:54:31;7.13;;;6.00;;
74170;SDS011;62526;50.948;6.590;2023-04-02T01:56:59;7.90;;;6.13;;
74170;SDS011;62526;50.948;6.590;2023-04-02T01:59:26;6.70;;;5.87;;
74170;SDS011;62526;50.948;6.590;2023-04-02T02:01:56;7.33;;;5.67;;
74170;SDS011;62526;50.948;6.590;2023-04-02T02:04:21;6.10;;;5.03;;
74170;SDS011;62526;50.948;6.590;2023-04-02T02:06:48;4.63;;;3.70;;
74170;SDS011;62526;50.948;6.590;2023-04-02T02:09:17;7.77;;;5.53;;
74170;SDS011;62526;50.948;6.590;2023-04-02T02:11:46;7.53;;;5.47;;
74170;SDS011;62526;50.948;6.590;2023-04-02T02:14:14;9.23;;;6.70;;
74170;SDS011;62526;50.948;6.590;2023-04-02T02:16:41;7.00;;;5.57;;
74170;SDS011;62526;50.948;6.590;2023-04-02T02:19:22;7.47;;;6.13;;
74170;SDS011;62526;50.948;6.590;2023-04-02T02:21:38;9.47;;;6.90;;
74170;SDS011;62526;50.948;6.590;2023-04-02T02:24:06;8.80;;;6.90;;
74170;SDS011;62526;50.948;6.590;2023-04-02T02:26:33;6.50;;;5.50;;
74170;SDS011;62526;50.948;6.590;2023-04-02T02:29:00;6.93;;;5.73;;
74170;SDS011;62526;50.948;6.590;2023-04-02T02:31:28;8.27;;;6.07;;
74170;SDS011;62526;50.948;6.590;2023-04-02T02:36:35;10.63;;;6.90;;
74170;SDS011;62526;50.948;6.590;2023-04-02T02:44:28;9.93;;;6.80;;
74170;SDS011;62526;50.948;6.590;2023-04-02T02:46:57;9.90;;;7.17;;
74170;SDS011;62526;50.948;6.590;2023-04-02T02:49:25;10.07;;;7.50;;
74170;SDS011;62526;50.948;6.590;2023-04-02T02:51:56;10.37;;;7.83;;
74170;SDS011;62526;50.948;6.590;2023-04-02T02:54:34;9.63;;;8.10;;
74170;SDS011;62526;50.948;6.590;2023-04-02T02:57:02;11.33;;;9.63;;
74170;SDS011;62526;50.948;6.590;2023-04-02T02:59:28;13.47;;;9.67;;
74170;SDS011;62526;50.948;6.590;2023-04-02T03:01:55;10.77;;;8.20;;
74170;SDS011;62526;50.948;6.590;2023-04-02T03:04:22;11.80;;;9.30;;
74170;SDS011;62526;50.948;6.590;2023-04-02T03:06:50;11.83;;;9.50;;
74170;SDS011;62526;50.948;6.590;2023-04-02T03:09:52;11.13;;;9.13;;
74170;SDS011;62526;50.948;6.590;2023-04-02T03:12:10;12.03;;;9.40;;
74170;SDS011;62526;50.948;6.590;2023-04-02T03:14:52;11.20;;;9.57;;
74170;SDS011;62526;50.948;6.590;2023-04-02T03:17:22;9.50;;;8.00;;
74170;SDS011;62526;50.948;6.590;2023-04-02T03:19:53;9.90;;;7.10;;
74170;SDS011;62526;50.948;6.590;2023-04-02T03:22:22;8.90;;;6.40;;
74170;SDS011;62526;50.948;6.590;2023-04-02T03:27:24;7.33;;;6.10;;
74170;SDS011;62526;50.948;6.590;2023-04-02T03:30:58;7.47;;;6.27;;
74170;SDS011;62526;50.948;6.590;2023-04-02T03:32:39;8.63;;;7.00;;
74170;SDS011;62526;50.948;6.590;2023-04-02T03:37:43;7.03;;;5.90;;
74170;SDS011;62526;50.948;6.590;2023-04-02T03:40:13;7.33;;;6.30;;
74170;SDS011;62526;50.948;6.590;2023-04-02T03:42:43;8.77;;;7.33;;
74170;SDS011;62526;50.948;6.590;2023-04-02T03:45:22;9.53;;;7.10;;
74170;SDS011;62526;50.948;6.590;2023-04-02T03:47:50;8.63;;;7.70;;
74170;SDS011;62526;50.948;6.590;2023-04-02T03:50:20;9.93;;;7.70;;
74170;SDS011;62526;50.948;6.590;2023-04-02T03:52:59;8.40;;;7.43;;
74170;SDS011;62526;50.948;6.590;2023-04-02T03:55:27;11.20;;;7.63;;
74170;SDS011;62526;50.948;6.590;2023-04-02T03:57:56;8.83;;;7.07;;
74170;SDS011;62526;50.948;6.590;2023-04-02T04:00:26;8.73;;;6.90;;
74170;SDS011;62526;50.948;6.590;2023-04-02T04:02:59;9.13;;;8.17;;
74170;SDS011;62526;50.948;6.590;2023-04-02T04:05:27;10.33;;;7.73;;
74170;SDS011;62526;50.948;6.590;2023-04-02T04:07:58;9.07;;;7.30;;
74170;SDS011;62526;50.948;6.590;2023-04-02T04:10:27;9.93;;;8.23;;
74170;SDS011;62526;50.948;6.590;2023-04-02T04:12:54;10.33;;;8.40;;
74170;SDS011;62526;50.948;6.590;2023-04-02T04:15:23;9.83;;;8.83;;
74170;SDS011;62526;50.948;6.590;2023-04-02T04:17:58;9.27;;;7.90;;
74170;SDS011;62526;50.948;6.590;2023-04-02T04:23:09;7.77;;;6.97;;
74170;SDS011;62526;50.948;6.590;2023-04-02T04:25:36;6.43;;;5.83;;
74170;SDS011;62526;50.948;6.590;2023-04-02T04:28:12;6.87;;;5.83;;
74170;SDS011;62526;50.948;6.590;2023-04-02T04:30:38;5.90;;;5.23;;
74170;SDS011;62526;50.948;6.590;2023-04-02T04:33:22;6.90;;;5.93;;
74170;SDS011;62526;50.948;6.590;2023-04-02T04:35:52;5.90;;;5.30;;
74170;SDS011;62526;50.948;6.590;2023-04-02T04:38:28;5.00;;;4.50;;
74170;SDS011;62526;50.948;6.590;2023-04-02T04:40:54;6.63;;;5.67;;
74170;SDS011;62526;50.948;6.590;2023-04-02T04:43:26;6.00;;;5.33;;
74170;SDS011;62526;50.948;6.590;2023-04-02T04:45:55;7.93;;;6.63;;
74170;SDS011;62526;50.948;6.590;2023-04-02T04:48:26;6.17;;;5.50;;
74170;SDS011;62526;50.948;6.590;2023-04-02T04:50:53;7.33;;;6.20;;
74170;SDS011;62526;50.948;6.590;2023-04-02T04:53:20;7.03;;;6.20;;
74170;SDS011;62526;50.948;6.590;2023-04-02T04:55:47;7.07;;;6.20;;
74170;SDS011;62526;50.948;6.590;2023-04-02T04:58:21;5.80;;;4.80;;
74170;SDS011;62526;50.948;6.590;2023-04-02T05:00:55;7.00;;;6.30;;
74170;SDS011;62526;50.948;6.590;2023-04-02T05:03:30;7.43;;;6.17;;
74170;SDS011;62526;50.948;6.590;2023-04-02T05:06:04;7.70;;;5.87;;
74170;SDS011;62526;50.948;6.590;2023-04-02T05:08:32;7.50;;;6.40;;
74170;SDS011;62526;50.948;6.590;2023-04-02T05:11:00;6.60;;;5.90;;
74170;SDS011;62526;50.948;6.590;2023-04-02T05:13:31;7.83;;;6.27;;
74170;SDS011;62526;50.948;6.590;2023-04-02T05:16:37;7.97;;;6.37;;
74170;SDS011;62526;50.948;6.590;2023-04-02T05:18:50;6.33;;;5.67;;
74170;SDS011;62526;50.948;6.590;2023-04-02T05:21:21;8.67;;;6.00;;
74170;SDS011;62526;50.948;6.590;2023-04-02T05:24:12;6.70;;;6.07;;
74170;SDS011;62526;50.948;6.590;2023-04-02T05:26:36;8.57;;;6.30;;
74170;SDS011;62526;50.948;6.590;2023-04-02T05:29:07;6.90;;;5.87;;
74170;SDS011;62526;50.948;6.590;2023-04-02T05:31:49;8.07;;;5.47;;
74170;SDS011;62526;50.948;6.590;2023-04-02T05:34:23;5.90;;;5.40;;
74170;SDS011;62526;50.948;6.590;2023-04-02T05:36:50;6.23;;;5.47;;
74170;SDS011;62526;50.948;6.590;2023-04-02T05:39:20;7.03;;;5.67;;
74170;SDS011;62526;50.948;6.590;2023-04-02T05:41:47;7.37;;;6.30;;
74170;SDS011;62526;50.948;6.590;2023-04-02T05:44:17;7.50;;;5.80;;
74170;SDS011;62526;50.948;6.590;2023-04-02T05:46:48;5.80;;;4.50;;
74170;SDS011;62526;50.948;6.590;2023-04-02T05:49:23;7.20;;;6.07;;
74170;SDS011;62526;50.948;6.590;2023-04-02T05:51:53;7.27;;;6.07;;
74170;SDS011;62526;50.948;6.590;2023-04-02T05:54:22;9.47;;;7.67;;
74170;SDS011;62526;50.948;6.590;2023-04-02T05:56:52;9.93;;;8.37;;
74170;SDS011;62526;50.948;6.590;2023-04-02T05:59:33;11.00;;;7.90;;
74170;SDS011;62526;50.948;6.590;2023-04-02T06:02:05;10.40;;;9.00;;
74170;SDS011;62526;50.948;6.590;2023-04-02T06:04:47;11.93;;;8.70;;
74170;SDS011;62526;50.948;6.590;2023-04-02T06:07:20;10.37;;;8.23;;
74170;SDS011;62526;50.948;6.590;2023-04-02T06:09:54;12.27;;;8.93;;
74170;SDS011;62526;50.948;6.590;2023-04-02T06:12:25;11.00;;;8.77;;
74170;SDS011;62526;50.948;6.590;2023-04-02T06:14:49;9.87;;;6.43;;
74170;SDS011;62526;50.948;6.590;2023-04-02T06:17:17;14.17;;;9.57;;
74170;SDS011;62526;50.948;6.590;2023-04-02T06:19:43;12.20;;;9.17;;
74170;SDS011;62526;50.948;6.590;2023-04-02T06:25:04;12.73;;;9.43;;
74170;SDS011;62526;50.948;6.590;2023-04-02T06:27:31;12.30;;;9.63;;
74170;SDS011;62526;50.948;6.590;2023-04-02T06:29:59;12.50;;;9.40;;
74170;SDS011;62526;50.948;6.590;2023-04-02T06:32:25;10.53;;;7.43;;
74170;SDS011;62526;50.948;6.590;2023-04-02T06:34:52;14.53;;;10.13;;
74170;SDS011;62526;50.948;6.590;2023-04-02T06:37:22;12.47;;;8.27;;
74170;SDS011;62526;50.948;6.590;2023-04-02T06:39:47;12.33;;;9.10;;
74170;SDS011;62526;50.948;6.590;2023-04-02T06:42:19;14.20;;;9.97;;
74170;SDS011;62526;50.948;6.590;2023-04-02T06:44:45;15.13;;;10.13;;
74170;SDS011;62526;50.948;6.590;2023-04-02T06:49:50;13.73;;;8.83;;
74170;SDS011;62526;50.948;6.590;2023-04-02T06:52:22;10.37;;;8.53;;
74170;SDS011;62526;50.948;6.590;2023-04-02T06:54:51;18.47;;;12.53;;
74170;SDS011;62526;50.948;6.590;2023-04-02T06:57:18;19.03;;;12.93;;
74170;SDS011;62526;50.948;6.590;2023-04-02T06:59:46;14.47;;;9.10;;
74170;SDS011;62526;50.948;6.590;2023-04-02T07:02:17;17.77;;;11.67;;
74170;SDS011;62526;50.948;6.590;2023-04-02T07:04:42;16.40;;;12.63;;
74170;SDS011;62526;50.948;6.590;2023-04-02T07:07:09;17.07;;;11.37;;
74170;SDS011;62526;50.948;6.590;2023-04-02T07:09:36;13.67;;;9.87;;
74170;SDS011;62526;50.948;6.590;2023-04-02T07:12:09;14.03;;;10.20;;
74170;SDS011;62526;50.948;6.590;2023-04-02T07:14:30;16.87;;;12.00;;
74170;SDS011;62526;50.948;6.590;2023-04-02T07:16:57;18.07;;;11.07;;
74170;SDS011;62526;50.948;6.590;2023-04-02T07:19:24;19.80;;;12.63;;
74170;SDS011;62526;50.948;6.590;2023-04-02T07:21:50;21.10;;;13.10;;
74170;SDS011;62526;50.948;6.590;2023-04-02T07:24:19;18.13;;;12.37;;
74170;SDS011;62526;50.948;6.590;2023-04-02T07:26:46;19.73;;;13.47;;
74170;SDS011;62526;50.948;6.590;2023-04-02T07:29:14;13.97;;;9.17;;
74170;SDS011;62526;50.948;6.590;2023-04-02T07:31:40;18.23;;;11.37;;
74170;SDS011;62526;50.948;6.590;2023-04-02T07:34:07;18.77;;;11.47;;
74170;SDS011;62526;50.948;6.590;2023-04-02T07:36:34;15.53;;;10.47;;
74170;SDS011;62526;50.948;6.590;2023-04-02T07:39:01;16.47;;;11.17;;
74170;SDS011;62526;50.948;6.590;2023-04-02T07:41:29;21.70;;;13.67;;
74170;SDS011;62526;50.948;6.590;2023-04-02T07:43:56;22.07;;;13.00;;
74170;SDS011;62526;50.948;6.590;2023-04-02T07:46:22;20.10;;;12.30;;
74170;SDS011;62526;50.948;6.590;2023-04-02T07:48:49;20.23;;;11.90;;
74170;SDS011;62526;50.948;6.590;2023-04-02T07:51:19;19.60;;;12.20;;
74170;SDS011;62526;50.948;6.590;2023-04-02T07:53:45;15.73;;;9.57;;
74170;SDS011;62526;50.948;6.590;2023-04-02T07:56:16;20.80;;;11.70;;
74170;SDS011;62526;50.948;6.590;2023-04-02T07:58:43;18.53;;;11.13;;
74170;SDS011;62526;50.948;6.590;2023-04-02T08:01:14;19.03;;;11.97;;
74170;SDS011;62526;50.948;6.590;2023-04-02T08:03:42;22.33;;;12.03;;
74170;SDS011;62526;50.948;6.590;2023-04-02T08:06:09;18.93;;;11.70;;
74170;SDS011;62526;50.948;6.590;2023-04-02T08:08:36;15.70;;;11.57;;
74170;SDS011;62526;50.948;6.590;2023-04-02T08:11:03;18.23;;;11.43;;
74170;SDS011;62526;50.948;6.590;2023-04-02T08:13:30;19.70;;;13.17;;
74170;SDS011;62526;50.948;6.590;2023-04-02T08:15:58;20.73;;;12.37;;
74170;SDS011;62526;50.948;6.590;2023-04-02T08:18:25;14.33;;;9.93;;
74170;SDS011;62526;50.948;6.590;2023-04-02T08:20:52;18.07;;;11.13;;
74170;SDS011;62526;50.948;6.590;2023-04-02T08:23:19;18.63;;;12.17;;
74170;SDS011;62526;50.948;6.590;2023-04-02T08:25:47;22.70;;;12.50;;
74170;SDS011;62526;50.948;6.590;2023-04-02T08:28:14;17.07;;;11.77;;
74170;SDS011;62526;50.948;6.590;2023-04-02T08:30:41;21.07;;;12.07;;
74170;SDS011;62526;50.948;6.590;2023-04-02T08:33:13;17.87;;;12.43;;
74170;SDS011;62526;50.948;6.590;2023-04-02T08:35:40;15.27;;;11.70;;
74170;SDS011;62526;50.948;6.590;2023-04-02T08:38:08;13.10;;;9.67;;
74170;SDS011;62526;50.948;6.590;2023-04-02T08:40:36;20.23;;;11.03;;
74170;SDS011;62526;50.948;6.590;2023-04-02T08:45:46;18.23;;;11.03;;
74170;SDS011;62526;50.948;6.590;2023-04-02T08:48:12;14.33;;;10.00;;
74170;SDS011;62526;50.948;6.590;2023-04-02T08:50:40;18.47;;;10.37;;
74170;SDS011;62526;50.948;6.590;2023-04-02T08:53:09;11.83;;;8.87;;
74170;SDS011;62526;50.948;6.590;2023-04-02T08:55:44;12.37;;;8.13;;
74170;SDS011;62526;50.948;6.590;2023-04-02T08:58:18;14.63;;;7.60;;
74170;SDS011;62526;50.948;6.590;2023-04-02T09:00:42;7.97;;;7.13;;
74170;SDS011;62526;50.948;6.590;2023-04-02T09:03:17;13.57;;;8.03;;
74170;SDS011;62526;50.948;6.590;2023-04-02T09:05:53;11.27;;;7.37;;
74170;SDS011;62526;50.948;6.590;2023-04-02T09:08:24;11.47;;;7.10;;
74170;SDS011;62526;50.948;6.590;2023-04-02T09:10:54;7.00;;;6.03;;
74170;SDS011;62526;50.948;6.590;2023-04-02T09:13:23;10.50;;;6.33;;
74170;SDS011;62526;50.948;6.590;2023-04-02T09:15:52;5.57;;;4.40;;
74170;SDS011;62526;50.948;6.590;2023-04-02T09:18:21;11.17;;;5.23;;
74170;SDS011;62526;50.948;6.590;2023-04-02T09:20:48;8.93;;;4.83;;
74170;SDS011;62526;50.948;6.590;2023-04-02T09:23:17;10.13;;;6.10;;
74170;SDS011;62526;50.948;6.590;2023-04-02T09:25:46;9.20;;;5.73;;
74170;SDS011;62526;50.948;6.590;2023-04-02T09:28:12;8.30;;;5.23;;
74170;SDS011;62526;50.948;6.590;2023-04-02T09:30:44;12.83;;;5.80;;
74170;SDS011;62526;50.948;6.590;2023-04-02T09:33:09;8.63;;;5.33;;
74170;SDS011;62526;50.948;6.590;2023-04-02T09:35:52;14.53;;;11.13;;
74170;SDS011;62526;50.948;6.590;2023-04-02T09:38:22;10.70;;;5.50;;
74170;SDS011;62526;50.948;6.590;2023-04-02T09:41:06;7.63;;;5.07;;
74170;SDS011;62526;50.948;6.590;2023-04-02T09:43:35;8.83;;;5.50;;
74170;SDS011;62526;50.948;6.590;2023-04-02T09:46:04;45.70;;;25.47;;
74170;SDS011;62526;50.948;6.590;2023-04-02T09:48:32;139.20;;;66.43;;
74170;SDS011;62526;50.948;6.590;2023-04-02T09:51:05;33.23;;;21.27;;
74170;SDS011;62526;50.948;6.590;2023-04-02T09:53:34;16.43;;;11.10;;
74170;SDS011;62526;50.948;6.590;2023-04-02T09:56:08;19.17;;;11.73;;
74170;SDS011;62526;50.948;6.590;2023-04-02T09:58:35;14.83;;;9.73;;
74170;SDS011;62526;50.948;6.590;2023-04-02T10:01:03;7.20;;;5.10;;
74170;SDS011;62526;50.948;6.590;2023-04-02T10:03:31;8.33;;;6.40;;
74170;SDS011;62526;50.948;6.590;2023-04-02T10:06:04;8.60;;;5.83;;
74170;SDS011;62526;50.948;6.590;2023-04-02T10:08:30;8.20;;;5.47;;
74170;SDS011;62526;50.948;6.590;2023-04-02T10:10:59;8.47;;;5.67;;
74170;SDS011;62526;50.948;6.590;2023-04-02T10:13:30;8.27;;;4.67;;
74170;SDS011;62526;50.948;6.590;2023-04-02T10:16:00;8.27;;;4.93;;
74170;SDS011;62526;50.948;6.590;2023-04-02T10:18:47;8.83;;;5.30;;
74170;SDS011;62526;50.948;6.590;2023-04-02T10:21:18;7.33;;;5.13;;
74170;SDS011;62526;50.948;6.590;2023-04-02T10:23:44;8.10;;;5.37;;
74170;SDS011;62526;50.948;6.590;2023-04-02T10:26:16;9.27;;;5.03;;
74170;SDS011;62526;50.948;6.590;2023-04-02T10:31:48;6.37;;;5.10;;
74170;SDS011;62526;50.948;6.590;2023-04-02T10:34:18;7.20;;;5.17;;
74170;SDS011;62526;50.948;6.590;2023-04-02T10:36:48;8.63;;;4.73;;
74170;SDS011;62526;50.948;6.590;2023-04-02T10:39:18;5.87;;;4.33;;
74170;SDS011;62526;50.948;6.590;2023-04-02T10:41:46;8.63;;;4.50;;
74170;SDS011;62526;50.948;6.590;2023-04-02T10:44:26;6.80;;;4.60;;
74170;SDS011;62526;50.948;6.590;2023-04-02T10:47:14;9.43;;;4.47;;
74170;SDS011;62526;50.948;6.590;2023-04-02T10:49:49;6.50;;;4.43;;
74170;SDS011;62526;50.948;6.590;2023-04-02T10:52:38;5.50;;;4.53;;
74170;SDS011;62526;50.948;6.590;2023-04-02T10:55:06;5.00;;;3.97;;
74170;SDS011;62526;50.948;6.590;2023-04-02T10:57:36;5.80;;;4.00;;
74170;SDS011;62526;50.948;6.590;2023-04-02T11:00:13;6.93;;;4.20;;
74170;SDS011;62526;50.948;6.590;2023-04-02T11:02:46;6.13;;;4.03;;
74170;SDS011;62526;50.948;6.590;2023-04-02T11:05:33;6.93;;;3.50;;
74170;SDS011;62526;50.948;6.590;2023-04-02T11:08:04;5.90;;;3.57;;
74170;SDS011;62526;50.948;6.590;2023-04-02T11:10:31;7.20;;;4.23;;
74170;SDS011;62526;50.948;6.590;2023-04-02T11:13:02;5.73;;;4.03;;
74170;SDS011;62526;50.948;6.590;2023-04-02T11:15:26;4.73;;;3.63;;
74170;SDS011;62526;50.948;6.590;2023-04-02T11:17:53;8.10;;;4.07;;
74170;SDS011;62526;50.948;6.590;2023-04-02T11:23:06;9.10;;;4.33;;
74170;SDS011;62526;50.948;6.590;2023-04-02T11:25:35;6.40;;;3.70;;
74170;SDS011;62526;50.948;6.590;2023-04-02T11:30:52;5.97;;;3.30;;
74170;SDS011;62526;50.948;6.590;2023-04-02T11:38:51;6.47;;;3.40;;
74170;SDS011;62526;50.948;6.590;2023-04-02T11:44:17;4.93;;;3.77;;
74170;SDS011;62526;50.948;6.590;2023-04-02T11:46:38;5.13;;;3.53;;
74170;SDS011;62526;50.948;6.590;2023-04-02T11:51:47;4.80;;;3.77;;
74170;SDS011;62526;50.948;6.590;2023-04-02T11:56:54;4.73;;;3.17;;
74170;SDS011;62526;50.948;6.590;2023-04-02T11:59:23;4.93;;;3.40;;
74170;SDS011;62526;50.948;6.590;2023-04-02T12:01:59;7.17;;;2.80;;
74170;SDS011;62526;50.948;6.590;2023-04-02T12:07:48;4.50;;;3.20;;
74170;SDS011;62526;50.948;6.590;2023-04-02T12:10:31;3.30;;;3.00;;
74170;SDS011;62526;50.948;6.590;2023-04-02T12:12:57;5.57;;;3.43;;
74170;SDS011;62526;50.948;6.590;2023-04-02T12:18:11;4.77;;;3.33;;
74170;SDS011;62526;50.948;6.590;2023-04-02T12:20:37;4.17;;;2.83;;
74170;SDS011;62526;50.948;6.590;2023-04-02T12:23:04;5.83;;;3.50;;
74170;SDS011;62526;50.948;6.590;2023-04-02T12:25:32;3.70;;;3.03;;
74170;SDS011;62526;50.948;6.590;2023-04-02T12:28:04;4.27;;;3.00;;
74170;SDS011;62526;50.948;6.590;2023-04-02T12:30:37;6.83;;;3.80;;
74170;SDS011;62526;50.948;6.590;2023-04-02T12:33:13;4.40;;;3.30;;
74170;SDS011;62526;50.948;6.590;2023-04-02T12:35:57;5.20;;;3.43;;
74170;SDS011;62526;50.948;6.590;2023-04-02T12:38:25;6.60;;;3.37;;
74170;SDS011;62526;50.948;6.590;2023-04-02T12:40:51;6.53;;;3.50;;
74170;SDS011;62526;50.948;6.590;2023-04-02T12:43:22;4.27;;;2.90;;
74170;SDS011;62526;50.948;6.590;2023-04-02T12:45:50;5.75;;;3.62;;
74170;SDS011;62526;50.948;6.590;2023-04-02T12:48:17;3.53;;;2.67;;
74170;SDS011;62526;50.948;6.590;2023-04-02T12:50:43;4.23;;;2.97;;
74170;SDS011;62526;50.948;6.590;2023-04-02T12:53:17;7.33;;;3.50;;
74170;SDS011;62526;50.948;6.590;2023-04-02T12:55:37;5.77;;;3.27;;
74170;SDS011;62526;50.948;6.590;2023-04-02T12:58:17;9.07;;;3.50;;
74170;SDS011;62526;50.948;6.590;2023-04-02T13:00:31;6.43;;;3.60;;
74170;SDS011;62526;50.948;6.590;2023-04-02T13:03:08;4.87;;;3.40;;
74170;SDS011;62526;50.948;6.590;2023-04-02T13:05:35;4.83;;;2.93;;
74170;SDS011;62526;50.948;6.590;2023-04-02T13:08:04;6.80;;;2.70;;
74170;SDS011;62526;50.948;6.590;2023-04-02T13:10:30;3.93;;;2.70;;
74170;SDS011;62526;50.948;6.590;2023-04-02T13:12:58;9.80;;;3.50;;
74170;SDS011;62526;50.948;6.590;2023-04-02T13:15:27;5.50;;;3.47;;
74170;SDS011;62526;50.948;6.590;2023-04-02T13:18:06;5.65;;;3.20;;
74170;SDS011;62526;50.948;6.590;2023-04-02T13:20:33;4.13;;;3.20;;
74170;SDS011;62526;50.948;6.590;2023-04-02T13:23:01;4.85;;;2.75;;
74170;SDS011;62526;50.948;6.590;2023-04-02T13:25:41;5.33;;;2.87;;
74170;SDS011;62526;50.948;6.590;2023-04-02T13:28:08;6.67;;;2.80;;
74170;SDS011;62526;50.948;6.590;2023-04-02T13:30:34;5.67;;;2.80;;
74170;SDS011;62526;50.948;6.590;2023-04-02T13:35:35;4.90;;;2.73;;
74170;SDS011;62526;50.948;6.590;2023-04-02T13:38:01;5.23;;;3.07;;
74170;SDS011;62526;50.948;6.590;2023-04-02T13:40:28;6.03;;;2.83;;
74170;SDS011;62526;50.948;6.590;2023-04-02T13:42:55;6.50;;;2.43;;
74170;SDS011;62526;50.948;6.590;2023-04-02T13:45:24;4.87;;;2.40;;
74170;SDS011;62526;50.948;6.590;2023-04-02T13:47:49;3.47;;;2.20;;
74170;SDS011;62526;50.948;6.590;2023-04-02T13:50:17;3.97;;;2.37;;
74170;SDS011;62526;50.948;6.590;2023-04-02T13:52:43;4.40;;;2.57;;
74170;SDS011;62526;50.948;6.590;2023-04-02T13:55:10;3.80;;;2.37;;
74170;SDS011;62526;50.948;6.590;2023-04-02T13:57:36;4.60;;;2.30;;
74170;SDS011;62526;50.948;6.590;2023-04-02T14:00:03;8.03;;;2.90;;
74170;SDS011;62526;50.948;6.590;2023-04-02T14:02:30;5.77;;;2.73;;
74170;SDS011;62526;50.948;6.590;2023-04-02T14:07:41;2.87;;;2.50;;
74170;SDS011;62526;50.948;6.590;2023-04-02T14:10:33;3.67;;;2.47;;
74170;SDS011;62526;50.948;6.590;2023-04-02T14:13:02;4.90;;;2.70;;
74170;SDS011;62526;50.948;6.590;2023-04-02T14:15:31;2.93;;;2.03;;
74170;SDS011;62526;50.948;6.590;2023-04-02T14:20:48;4.07;;;2.70;;
74170;SDS011;62526;50.948;6.590;2023-04-02T14:23:22;3.87;;;2.40;;
74170;SDS011;62526;50.948;6.590;2023-04-02T15:29:52;4.10;;;2.07;;
74170;SDS011;62526;50.948;6.590;2023-04-02T15:38:03;2.47;;;2.10;;
74170;SDS011;62526;50.948;6.590;2023-04-02T15:48:47;4.33;;;2.57;;
74170;SDS011;62526;50.948;6.590;2023-04-02T15:51:28;3.33;;;2.23;;
74170;SDS011;62526;50.948;6.590;2023-04-02T15:56:46;4.07;;;2.37;;
74170;SDS011;62526;50.948;6.590;2023-04-02T16:05:37;4.67;;;2.27;;
74170;SDS011;62526;50.948;6.590;2023-04-02T16:08:23;3.80;;;2.20;;
74170;SDS011;62526;50.948;6.590;2023-04-02T16:11:10;5.70;;;2.37;;
74170;SDS011;62526;50.948;6.590;2023-04-02T16:13:39;4.70;;;2.53;;
74170;SDS011;62526;50.948;6.590;2023-04-02T16:44:40;5.47;;;2.23;;
74170;SDS011;62526;50.948;6.590;2023-04-02T16:58:23;5.07;;;2.27;;
74170;SDS011;62526;50.948;6.590;2023-04-02T17:00:52;2.93;;;2.50;;
74170;SDS011;62526;50.948;6.590;2023-04-02T17:11:16;4.60;;;3.13;;
74170;SDS011;62526;50.948;6.590;2023-04-02T17:13:45;4.10;;;2.90;;
74170;SDS011;62526;50.948;6.590;2023-04-02T17:22:00;2.73;;;2.40;;
74170;SDS011;62526;50.948;6.590;2023-04-02T17:24:31;6.43;;;3.00;;
74170;SDS011;62526;50.948;6.590;2023-04-02T17:26:58;4.03;;;2.97;;
74170;SDS011;62526;50.948;6.590;2023-04-02T17:29:31;5.77;;;2.83;;
74170;SDS011;62526;50.948;6.590;2023-04-02T17:32:00;6.73;;;3.00;;
74170;SDS011;62526;50.948;6.590;2023-04-02T17:34:39;4.07;;;2.80;;
74170;SDS011;62526;50.948;6.590;2023-04-02T18:05:27;12.87;;;8.70;;
74170;SDS011;62526;50.948;6.590;2023-04-02T18:08:04;6.17;;;3.87;;
74170;SDS011;62526;50.948;6.590;2023-04-02T18:10:46;31.20;;;14.27;;
74170;SDS011;62526;50.948;6.590;2023-04-02T18:13:33;16.50;;;8.57;;
74170;SDS011;62526;50.948;6.590;2023-04-02T18:17:08;51.47;;;27.67;;
74170;SDS011;62526;50.948;6.590;2023-04-02T18:18:49;6.43;;;4.93;;
74170;SDS011;62526;50.948;6.590;2023-04-02T18:21:23;15.63;;;6.83;;
74170;SDS011;62526;50.948;6.590;2023-04-02T18:24:01;4.20;;;3.77;;
74170;SDS011;62526;50.948;6.590;2023-04-02T18:29:22;10.67;;;5.90;;
74170;SDS011;62526;50.948;6.590;2023-04-02T18:31:58;9.93;;;6.97;;
74170;SDS011;62526;50.948;6.590;2023-04-02T18:34:28;5.97;;;4.47;;
74170;SDS011;62526;50.948;6.590;2023-04-02T18:39:46;5.87;;;4.10;;
74170;SDS011;62526;50.948;6.590;2023-04-02T18:42:20;6.73;;;3.93;;
74170;SDS011;62526;50.948;6.590;2023-04-02T18:44:53;7.80;;;4.30;;
74170;SDS011;62526;50.948;6.590;2023-04-02T18:47:22;5.87;;;3.27;;
74170;SDS011;62526;50.948;6.590;2023-04-02T18:50:11;11.90;;;7.17;;
74170;SDS011;62526;50.948;6.590;2023-04-02T18:52:39;6.73;;;3.67;;
74170;SDS011;62526;50.948;6.590;2023-04-02T18:55:15;5.67;;;3.83;;
74170;SDS011;62526;50.948;6.590;2023-04-02T18:57:44;9.00;;;3.87;;
74170;SDS011;62526;50.948;6.590;2023-04-02T19:00:18;6.10;;;3.53;;
74170;SDS011;62526;50.948;6.590;2023-04-02T19:02:47;5.03;;;4.13;;